createdAt,value
2022-10-19T00:01:39.974Z,25.95
2022-10-19T00:04:30.800Z,25.42
2022-10-19T00:07:20.816Z,26.73
2022-10-19T00:10:13.243Z,26.35
2022-10-19T00:13:03.349Z,27.70
2022-10-19T00:15:53.151Z,27.95
2022-10-19T00:18:47.040Z,27.98
2022-10-19T00:21:40.552Z,29.98
2022-10-19T00:24:30.047Z,29.40
2022-10-19T00:27:19.346Z,27.60
2022-10-19T00:30:12.565Z,28.08
2022-10-19T00:33:02.380Z,27.27
2022-10-19T00:35:53.330Z,28.60
2022-10-19T00:38:43.750Z,27.20
2022-10-19T00:41:35.642Z,27.90
2022-10-19T00:44:31.654Z,28.50
2022-10-19T00:47:21.895Z,28.30
2022-10-19T00:50:11.441Z,29.77
2022-10-19T00:53:01.044Z,28.98
2022-10-19T00:55:50.342Z,30.05
2022-10-19T00:58:39.950Z,30.35
2022-10-19T01:01:33.387Z,33.30
2022-10-19T01:04:24.818Z,36.15
2022-10-19T01:07:21.609Z,33.85
2022-10-19T01:10:14.515Z,30.95
2022-10-19T01:13:45.307Z,32.78
2022-10-19T01:16:52.229Z,34.70
2022-10-19T01:20:17.166Z,35.55
2022-10-19T01:23:53.093Z,41.13
2022-10-19T01:27:18.192Z,42.75
2022-10-19T01:30:55.239Z,44.55
2022-10-19T01:34:33.237Z,45.65
2022-10-19T01:37:44.430Z,46.60
2022-10-19T01:40:44.618Z,39.97
2022-10-19T01:43:58.191Z,39.78
2022-10-19T01:47:15.858Z,35.47
2022-10-19T01:50:28.329Z,33.95
2022-10-19T01:53:26.741Z,33.83
2022-10-19T01:56:24.043Z,30.02
2022-10-19T01:59:14.797Z,31.40
2022-10-19T02:02:16.900Z,30.90
2022-10-19T02:05:09.695Z,28.75
2022-10-19T02:08:12.632Z,28.13
2022-10-19T02:11:07.469Z,28.92
2022-10-19T02:14:03.166Z,27.33
2022-10-19T02:17:08.509Z,28.75
2022-10-19T02:20:06.601Z,27.20
2022-10-19T02:22:59.468Z,25.92
2022-10-19T02:25:50.433Z,25.98
2022-10-19T02:28:44.571Z,26.13
2022-10-19T02:31:40.490Z,25.60
2022-10-19T02:34:31.610Z,25.58
2022-10-19T02:37:25.486Z,26.60
2022-10-19T02:40:25.988Z,27.33
2022-10-19T02:43:25.779Z,26.67
2022-10-19T02:47:05.890Z,27.00
2022-10-19T02:50:04.724Z,29.38
2022-10-19T02:53:02.808Z,28.05
2022-10-19T02:56:04.502Z,27.63
2022-10-19T02:59:07.577Z,28.83
2022-10-19T03:02:08.265Z,28.83
2022-10-19T03:05:09.994Z,27.58
2022-10-19T03:08:06.035Z,28.00
2022-10-19T03:10:58.891Z,26.98
2022-10-19T03:13:57.268Z,29.10
2022-10-19T03:16:51.891Z,28.63
2022-10-19T03:19:43.800Z,30.75
2022-10-19T03:22:48.339Z,29.67
2022-10-19T03:32:06.398Z,28.42
2022-10-19T03:34:57.226Z,28.02
2022-10-19T03:38:06.326Z,27.05
2022-10-19T03:41:05.983Z,28.58
2022-10-19T03:44:08.897Z,28.00
2022-10-19T03:47:20.605Z,27.77
2022-10-19T03:50:18.879Z,28.70
2022-10-19T03:53:11.767Z,26.75
2022-10-19T03:56:37.051Z,29.85
2022-10-19T03:59:33.669Z,27.60
2022-10-19T04:02:24.235Z,28.23
2022-10-19T04:05:17.871Z,28.13
2022-10-19T04:08:17.121Z,27.92
2022-10-19T04:11:13.317Z,27.80
2022-10-19T04:17:21.742Z,30.35
2022-10-19T04:20:14.279Z,33.47
2022-10-19T04:23:12.473Z,34.20
2022-10-19T04:26:15.084Z,35.03
2022-10-19T04:29:10.747Z,33.67
2022-10-19T04:32:04.689Z,35.25
2022-10-19T04:34:57.272Z,35.85
2022-10-19T04:38:03.536Z,32.25
2022-10-19T04:40:57.325Z,32.00
2022-10-19T04:43:58.161Z,25.50
2022-10-19T04:47:01.534Z,16.15
2022-10-19T04:49:57.749Z,10.32
2022-10-19T04:52:57.679Z,21.90
2022-10-19T04:55:56.285Z,6.90
2022-10-19T04:58:50.641Z,9.05
2022-10-19T05:01:57.826Z,15.30
2022-10-19T05:04:57.450Z,19.35
2022-10-19T05:07:56.032Z,23.85
2022-10-19T05:10:59.942Z,29.13
2022-10-19T05:13:56.746Z,37.70
2022-10-19T05:17:21.250Z,36.25
2022-10-19T05:20:24.803Z,42.28
2022-10-19T05:23:24.005Z,45.58
2022-10-19T05:26:47.363Z,46.22
2022-10-19T05:29:58.449Z,47.60
2022-10-19T05:33:01.608Z,45.50
2022-10-19T05:35:55.524Z,50.45
2022-10-19T05:38:59.226Z,54.42
2022-10-19T05:41:57.301Z,56.70
2022-10-19T05:45:06.108Z,54.85
2022-10-19T05:48:04.031Z,50.88
2022-10-19T05:51:05.220Z,51.95
2022-10-19T05:54:06.706Z,51.88
2022-10-19T05:57:06.926Z,49.92
2022-10-19T06:00:03.085Z,47.78
2022-10-19T06:03:07.530Z,47.42
2022-10-19T06:06:16.707Z,47.47
2022-10-19T06:09:13.347Z,47.25
2022-10-19T06:12:15.797Z,50.45
2022-10-19T06:15:20.126Z,47.53
2022-10-19T06:18:27.977Z,45.95
2022-10-19T06:21:46.443Z,44.40
2022-10-19T06:27:55.245Z,42.20
2022-10-19T06:30:55.061Z,41.92
2022-10-19T06:34:04.831Z,43.40
2022-10-19T06:37:02.538Z,41.47
2022-10-19T06:43:14.183Z,38.42
2022-10-19T06:46:13.853Z,36.28
2022-10-19T06:49:12.150Z,35.60
2022-10-19T06:52:13.060Z,36.38
2022-10-19T06:55:11.291Z,38.22
2022-10-19T06:58:14.625Z,39.83
2022-10-19T07:01:21.629Z,40.35
2022-10-19T07:04:25.225Z,41.15
2022-10-19T07:07:26.181Z,42.67
2022-10-19T07:10:36.278Z,41.80
2022-10-19T07:16:44.395Z,43.78
2022-10-19T07:19:40.709Z,43.85
2022-10-19T07:25:47.388Z,46.88
2022-10-19T07:28:52.183Z,45.72
2022-10-19T07:31:55.045Z,41.08
2022-10-19T07:34:51.649Z,43.28
2022-10-19T07:41:04.814Z,35.63
2022-10-19T07:44:34.955Z,40.47
2022-10-19T07:50:47.386Z,33.53
2022-10-19T07:53:46.669Z,30.80
2022-10-19T07:56:52.292Z,28.48
2022-10-19T07:59:58.367Z,27.70
2022-10-19T08:06:23.633Z,27.55
2022-10-19T08:09:51.063Z,22.42
2022-10-19T08:13:03.702Z,28.33
2022-10-19T08:16:03.840Z,25.85
2022-10-19T08:19:20.226Z,28.05
2022-10-19T08:22:34.057Z,24.58
2022-10-19T08:25:50.241Z,25.70
2022-10-19T08:28:46.637Z,22.05
2022-10-19T08:31:56.270Z,22.05
2022-10-19T08:35:45.063Z,19.95
2022-10-19T08:38:58.696Z,21.67
2022-10-19T08:42:26.261Z,20.20
2022-10-19T08:45:50.171Z,20.27
2022-10-19T08:48:50.557Z,18.75
2022-10-19T08:52:00.384Z,18.58
2022-10-19T08:54:55.013Z,18.20
2022-10-19T08:58:07.191Z,25.27
2022-10-19T09:01:37.982Z,20.10
2022-10-19T09:05:22.277Z,30.52
2022-10-19T09:08:30.306Z,31.35
2022-10-19T09:15:01.418Z,20.40
2022-10-19T09:18:08.192Z,19.10
2022-10-19T09:21:30.882Z,23.23
2022-10-19T09:25:18.550Z,21.02
2022-10-19T09:28:41.402Z,23.92
2022-10-19T09:31:49.156Z,20.98
2022-10-19T09:35:17.269Z,26.08
2022-10-19T09:38:15.104Z,26.25
2022-10-19T09:41:24.542Z,27.92
2022-10-19T09:44:30.245Z,31.25
2022-10-19T09:47:42.801Z,30.00
2022-10-19T09:51:02.295Z,28.95
2022-10-19T09:54:03.555Z,30.27
2022-10-19T09:57:40.494Z,33.72
2022-10-19T10:03:59.558Z,30.10
2022-10-19T10:07:18.191Z,25.85
2022-10-19T10:10:50.716Z,23.65
2022-10-19T10:13:57.858Z,20.92
2022-10-19T10:17:25.320Z,19.75
2022-10-19T10:20:49.930Z,19.90
2022-10-19T10:24:24.228Z,18.75
2022-10-19T10:27:32.706Z,39.47
2022-10-19T10:34:22.949Z,28.00
2022-10-19T10:37:31.607Z,26.52
2022-10-19T10:44:13.165Z,33.20
2022-10-19T10:50:58.956Z,37.08
2022-10-19T10:53:50.998Z,36.30
2022-10-19T10:56:55.367Z,40.42
2022-10-19T11:00:27.338Z,53.35
2022-10-19T11:03:56.201Z,39.70
2022-10-19T11:06:59.836Z,46.65
2022-10-19T11:10:10.097Z,38.63
2022-10-19T11:13:38.173Z,37.25
2022-10-19T11:16:45.830Z,34.70
2022-10-19T11:19:52.565Z,34.90
2022-10-19T11:23:20.000Z,29.33
2022-10-19T11:26:31.119Z,26.35
2022-10-19T11:29:58.073Z,24.63
2022-10-19T11:33:06.740Z,24.95
2022-10-19T11:36:29.881Z,25.58
2022-10-19T11:40:05.271Z,32.10
2022-10-19T11:43:11.050Z,26.10
2022-10-19T11:46:30.951Z,23.88
2022-10-19T11:49:48.968Z,23.80
2022-10-19T11:53:00.629Z,23.73
2022-10-19T11:56:17.823Z,22.70
2022-10-19T12:00:13.507Z,21.20
2022-10-19T12:03:44.273Z,19.60
2022-10-19T12:07:04.540Z,20.13
2022-10-19T12:10:43.054Z,18.50
2022-10-19T12:13:45.476Z,21.70
2022-10-19T12:16:57.391Z,20.40
2022-10-19T12:20:02.519Z,20.38
2022-10-19T12:23:34.352Z,19.33
2022-10-19T12:26:53.316Z,21.00
2022-10-19T12:29:54.620Z,20.77
2022-10-19T12:33:35.652Z,19.80
2022-10-19T12:37:06.194Z,19.00
2022-10-19T12:40:48.494Z,17.70
2022-10-19T12:43:53.641Z,16.35
2022-10-19T12:46:53.093Z,15.25
2022-10-19T12:50:02.946Z,15.02
2022-10-19T12:53:22.585Z,16.10
2022-10-19T12:56:44.061Z,14.35
2022-10-19T12:59:52.924Z,13.50
2022-10-19T13:02:48.295Z,14.40
2022-10-19T13:06:10.863Z,14.18
2022-10-19T13:09:13.432Z,13.57
2022-10-19T13:12:31.790Z,13.27
2022-10-19T13:16:01.864Z,13.68
2022-10-19T13:19:27.520Z,13.18
2022-10-19T13:26:46.381Z,12.30
2022-10-19T13:29:57.223Z,11.70
2022-10-19T13:32:53.293Z,12.20
2022-10-19T13:36:35.751Z,12.45
2022-10-19T13:39:54.358Z,12.38
2022-10-19T13:43:09.981Z,11.57
2022-10-19T13:46:30.808Z,11.88
2022-10-19T13:50:08.431Z,11.50
2022-10-19T14:00:30.890Z,11.65
2022-10-19T14:03:58.543Z,11.52
2022-10-19T14:08:07.238Z,10.65
2022-10-19T14:11:26.268Z,11.18
2022-10-19T14:14:53.145Z,12.02
2022-10-19T14:18:01.261Z,11.60
2022-10-19T14:21:11.929Z,12.63
2022-10-19T14:24:22.898Z,12.07
2022-10-19T14:27:21.085Z,11.52
2022-10-19T14:30:29.019Z,12.23
2022-10-19T14:33:19.451Z,11.73
2022-10-19T14:36:21.821Z,12.95
2022-10-19T14:39:43.160Z,12.43
2022-10-19T14:42:47.418Z,13.48
2022-10-19T14:45:40.975Z,14.85
2022-10-19T14:48:33.349Z,15.00
2022-10-19T14:51:44.503Z,14.95
2022-10-19T14:54:38.045Z,13.25
2022-10-19T14:57:35.562Z,13.75
2022-10-19T15:00:28.762Z,13.00
2022-10-19T15:03:28.552Z,12.05
2022-10-19T15:06:27.354Z,12.00
2022-10-19T15:09:47.733Z,10.70
2022-10-19T15:12:42.773Z,10.13
2022-10-19T15:15:35.892Z,9.45
2022-10-19T15:21:38.692Z,8.80
2022-10-19T15:24:31.747Z,8.55
2022-10-19T15:27:24.915Z,8.10
2022-10-19T15:30:21.037Z,8.27
2022-10-19T15:33:17.309Z,7.70
2022-10-19T15:36:22.258Z,7.80
2022-10-19T15:39:32.854Z,8.63
2022-10-19T15:42:47.082Z,8.35
2022-10-19T15:45:40.794Z,8.93
2022-10-19T15:48:52.291Z,8.85
2022-10-19T15:51:50.695Z,8.80
2022-10-19T15:54:45.423Z,8.10
2022-10-19T15:57:40.753Z,8.73
2022-10-19T16:00:38.900Z,8.30
2022-10-19T16:03:32.387Z,9.13
2022-10-19T16:06:24.628Z,9.50
2022-10-19T16:09:23.342Z,9.32
2022-10-19T16:12:16.567Z,10.77
2022-10-19T16:15:08.651Z,8.75
2022-10-19T16:18:05.057Z,8.85
2022-10-19T16:20:55.227Z,8.95
2022-10-19T16:23:46.132Z,8.90
2022-10-19T16:26:37.361Z,13.05
2022-10-19T16:29:30.764Z,13.77
2022-10-19T16:32:21.309Z,13.38
2022-10-19T16:35:15.662Z,14.20
2022-10-19T16:38:05.950Z,13.93
2022-10-19T16:40:55.977Z,12.32
2022-10-19T16:43:49.945Z,10.82
2022-10-19T16:46:40.464Z,11.23
2022-10-19T16:49:32.364Z,10.43
2022-10-19T16:52:23.066Z,10.70
2022-10-19T16:55:13.308Z,10.50
2022-10-19T16:58:04.028Z,14.85
2022-10-19T17:00:58.232Z,15.60
2022-10-19T17:03:52.384Z,16.52
2022-10-19T17:06:46.436Z,16.75
2022-10-19T17:09:42.111Z,17.67
2022-10-19T17:12:33.391Z,15.93
2022-10-19T17:15:42.133Z,14.98
2022-10-19T17:18:34.915Z,17.55
2022-10-19T17:21:28.189Z,21.30
2022-10-19T17:24:22.062Z,22.00
2022-10-19T17:27:12.962Z,25.45
2022-10-19T17:30:06.871Z,23.23
2022-10-19T17:32:56.989Z,26.15
2022-10-19T17:35:47.548Z,25.40
2022-10-19T17:38:39.905Z,25.23
2022-10-19T17:41:31.513Z,20.35
2022-10-19T17:44:24.504Z,19.08
2022-10-19T17:47:14.849Z,18.98
2022-10-19T17:50:04.998Z,18.42
2022-10-19T17:52:58.718Z,15.55
2022-10-19T17:55:49.140Z,15.13
2022-10-19T17:58:40.129Z,13.13
2022-10-19T18:01:31.174Z,14.07
2022-10-19T18:04:25.009Z,13.00
2022-10-19T18:07:15.182Z,13.27
2022-10-19T18:10:06.384Z,12.30
2022-10-19T18:12:56.691Z,11.93
2022-10-19T18:15:46.679Z,13.15
2022-10-19T18:18:40.585Z,12.25
2022-10-19T18:21:39.964Z,12.45
2022-10-19T18:24:32.136Z,13.50
2022-10-19T18:27:23.794Z,13.07
2022-10-19T18:30:14.401Z,14.52
2022-10-19T18:33:07.797Z,13.25
2022-10-19T18:36:00.164Z,14.20
2022-10-19T18:38:55.234Z,14.43
2022-10-19T18:41:45.382Z,14.82
2022-10-19T18:44:36.329Z,15.30
2022-10-19T18:47:26.372Z,16.65
2022-10-19T18:50:19.297Z,19.00
2022-10-19T18:53:09.396Z,19.67
2022-10-19T18:56:02.696Z,19.85
2022-10-19T18:58:53.753Z,19.95
2022-10-19T19:01:44.944Z,18.50
2022-10-19T19:04:35.615Z,19.33
2022-10-19T19:07:26.268Z,17.42
2022-10-19T19:10:18.915Z,18.45
2022-10-19T19:13:09.632Z,18.63
2022-10-19T19:16:01.029Z,16.85
2022-10-19T19:18:52.032Z,17.55
2022-10-19T19:21:45.180Z,17.48
2022-10-19T19:24:34.977Z,15.00
2022-10-19T19:27:31.432Z,14.85
2022-10-19T19:30:24.900Z,13.85
2022-10-19T19:33:19.322Z,15.13
2022-10-19T19:36:11.016Z,15.20
2022-10-19T19:39:01.252Z,15.18
2022-10-19T19:41:52.962Z,15.68
2022-10-19T19:44:45.773Z,14.57
2022-10-19T19:47:36.339Z,14.63
2022-10-19T19:50:26.779Z,15.73
2022-10-19T19:53:17.106Z,15.95
2022-10-19T19:56:12.036Z,15.80
2022-10-19T19:59:06.786Z,14.48
2022-10-19T20:01:57.244Z,14.60
2022-10-19T20:04:48.712Z,13.60
2022-10-19T20:07:39.755Z,13.23
2022-10-19T20:10:33.166Z,13.23
2022-10-19T20:13:23.398Z,14.60
2022-10-19T20:16:20.931Z,15.77
2022-10-19T20:19:14.614Z,15.13
2022-10-19T20:22:07.366Z,13.48
2022-10-19T20:24:57.338Z,11.63
2022-10-19T20:27:49.354Z,9.95
2022-10-19T20:30:39.420Z,9.70
2022-10-19T20:33:32.486Z,8.05
2022-10-19T20:36:27.424Z,8.43
2022-10-19T20:39:17.990Z,9.05
2022-10-19T20:42:07.901Z,9.40
2022-10-19T20:44:58.411Z,10.25
2022-10-19T20:47:50.343Z,12.13
2022-10-19T20:50:41.932Z,12.73
2022-10-19T20:53:32.021Z,15.02
2022-10-19T20:56:24.863Z,16.75
2022-10-19T20:59:23.734Z,17.23
2022-10-19T21:02:13.919Z,21.02
2022-10-19T21:05:04.450Z,21.08
2022-10-19T21:07:55.179Z,22.92
2022-10-19T21:10:45.639Z,23.17
2022-10-19T21:13:36.090Z,24.40
2022-10-19T21:16:31.601Z,23.55
2022-10-19T21:19:23.615Z,21.90
2022-10-19T21:22:17.054Z,20.08
2022-10-19T21:25:07.491Z,18.60
2022-10-19T21:27:58.636Z,17.27
2022-10-19T21:30:48.578Z,15.35
2022-10-19T21:33:57.015Z,14.45
2022-10-19T21:36:49.118Z,14.45
2022-10-19T21:39:50.133Z,15.73
2022-10-19T21:42:45.728Z,18.27
2022-10-19T21:45:44.670Z,21.23
2022-10-19T21:48:42.070Z,22.25
2022-10-19T21:51:43.961Z,21.75
2022-10-19T21:54:47.381Z,22.85
2022-10-19T21:57:37.206Z,22.30
2022-10-19T22:00:28.216Z,23.20
2022-10-19T22:03:21.124Z,23.23
2022-10-19T22:06:12.150Z,23.83
2022-10-19T22:09:02.621Z,24.27
2022-10-19T22:11:53.258Z,22.95
2022-10-19T22:14:46.222Z,22.63
2022-10-19T22:17:37.669Z,21.73
2022-10-19T22:20:27.825Z,24.33
2022-10-19T22:23:17.708Z,22.48
2022-10-19T22:26:18.258Z,21.65
2022-10-19T22:29:11.603Z,19.88
2022-10-19T22:32:01.515Z,21.27
2022-10-19T22:34:52.106Z,19.00
2022-10-19T22:37:42.026Z,20.98
2022-10-19T22:40:33.215Z,20.13
2022-10-19T22:43:22.730Z,22.42
2022-10-19T22:46:12.609Z,22.08
2022-10-19T22:49:02.394Z,22.05
2022-10-19T22:51:52.075Z,21.67
2022-10-19T22:54:44.085Z,22.25
2022-10-19T22:57:34.333Z,20.77
2022-10-19T23:00:24.194Z,20.00
2022-10-19T23:03:14.205Z,17.33
2022-10-19T23:06:04.534Z,18.02
2022-10-19T23:08:55.190Z,19.35
2022-10-19T23:11:46.114Z,18.77
2022-10-19T23:14:36.589Z,19.10
2022-10-19T23:17:33.026Z,21.67
2022-10-19T23:20:23.025Z,21.58
2022-10-19T23:23:16.098Z,22.27
2022-10-19T23:26:15.162Z,25.35
2022-10-19T23:29:07.218Z,23.52
2022-10-19T23:31:57.613Z,23.60
2022-10-19T23:34:52.014Z,28.75
2022-10-19T23:37:42.355Z,33.83
2022-10-19T23:40:34.555Z,34.85
2022-10-19T23:43:24.357Z,24.75
2022-10-19T23:46:13.582Z,31.50
2022-10-19T23:49:02.261Z,37.75
2022-10-19T23:51:52.594Z,36.92
2022-10-19T23:54:41.817Z,42.33
2022-10-19T23:57:30.890Z,36.15
